Archival Weather

Salzburg

Salzburg, Austria (LOWS)

Report from: Thursday, September 21, 2023 10:50 PM CEST
Current time: Friday, July 19, 2024 5:16 AM CEST

Current weather – Weather history – Daily summaries
Weather forecast

Temperature19.0°C (66.2°F)
Dew point11.0°C (51.8°F)
Winds 7 kts (3.6 m/s, 8.1 mph) Vrb
Winds variableWinds variable from East-Southeast (110°) to South (170°)
Visibility6.2 mi. (10 km)
Clouds Sky clear
Altimeter29.56 in.Hg (1001 mB)
Relative humidity60 %
Density altitude1,070 ft. (326 m)
Remarks Fully automated report
No clouds detected
Flight conditions Visual Meteorological Conditions
Raw dataLOWS 212050Z AUTO 14007KT 110V170 9999 NCD 19/11 Q1001
An error has occurred. This application may no longer respond until reloaded. Reload 🗙